Route Details

Aircraft Information
Group: North America Fleet
Types: B738, B752, B762, B763
Route Data
Distance: 909nm
Duration: 2h 39m
Origin METAR: KMIA 072353Z 10010KT 10SM SCT040 SCT250 24/15 A3023 RMK AO2 SLP236 T02390150 10267 20233 53008 $
Dest. METAR: TJSJ 072356Z 08012KT 10SM BKN025 26/22 A3010 RMK AO2 SLP190 60011 T02560222 10289 20250 53012
Freight Data
(for Feb 8, 2023)
Load Factor:
97%
Manifested Cargo: 99,587lbs
Financial History
Total Freight: 1,008,049lbs
Average Load: 0lbs/flt
Fuel Used: 269,694lbs
Avg. Fuel Used: 0lbs/flt
Fuel Expense: $244,944
Avg. Fuel Expense: $0
Avg. Fuel Cost: $0/lbs
Total Gross Income: $2,172,917
Pilot Pay: $2,258
Total Expenses: $338,586
Total Revenue: $1,582,360
Average Revenue: $0

Capitol Logistics 396




KMIA
Miami International Airport
Miami, Florida
TJSJ
Luis Munoz Marin International Airport
San Juan,

Activity Log

Date Flight Route Aircraft Duration
10/13/2022 CPX396 KLADA2 BITAC Y290 BEANO BEANO3 B763 2h 10m
07/16/2022 CPX396 KLADA2 BITAC Y290 BEANO BEANO3 B763 2h 25m
06/11/2022 CPX239 KLADA2 BITAC Y290 BEANO BEANO3 B752 2h 25m
11/04/2021 CPX2141 KLADA1 BITAC HAGIT CALTO Y290 BEANO BEANO3 B762 2h 14m
08/12/2021 CPX2141 SKIPS2 SKIPS Y290 BEANO A30F 2h 24m
08/11/2021 CPX2141 SKIPS2 SKIPS Y290 BEANO A30F 2h 22m
04/13/2021 CPX2141 SKIPS2 SKIPS Y290 BEANO B763 2h 10m
09/28/2019 CPX239 SKIPS2 SKIPS Y290 BEANO B763 2h 54m
06/18/2019 CPX239 SKIPS2 SKIPS Y290 BEANO B763 2h 18m
05/26/2019 CPX239 SKIPS2 SKIPS Y290 BEANO B763 2h 20m
04/06/2019 CPX239 SKIPS2 SKIPS Y290 BEANO B763 2h 18m
02/16/2019 CPX239 SKIPS2 SKIPS Y290 BEANO BEANO3 B763 2h 14m